createdAt,value
2018-12-31T00:00:22.011Z,8.50
2018-12-31T00:02:59.039Z,8.50
2018-12-31T00:05:32.350Z,8.50
2018-12-31T00:08:04.823Z,8.51
2018-12-31T00:10:35.422Z,8.50
2018-12-31T00:13:06.682Z,8.50
2018-12-31T00:15:42.502Z,8.50
2018-12-31T00:18:13.195Z,8.52
2018-12-31T00:20:51.907Z,8.51
2018-12-31T00:23:22.454Z,8.52
2018-12-31T00:25:53.019Z,8.52
2018-12-31T00:28:28.785Z,8.53
2018-12-31T00:30:59.374Z,8.54
2018-12-31T00:33:30.111Z,8.56
2018-12-31T00:36:00.739Z,8.58
2018-12-31T00:38:31.230Z,8.59
2018-12-31T00:41:09.680Z,8.60
2018-12-31T00:43:40.299Z,8.60
2018-12-31T00:46:10.601Z,8.60
2018-12-31T00:48:41.216Z,8.62
2018-12-31T00:51:11.575Z,8.62
2018-12-31T00:53:44.032Z,8.61
2018-12-31T00:56:14.387Z,8.62
2018-12-31T00:58:46.308Z,8.62
2018-12-31T01:01:17.019Z,8.62
2018-12-31T01:03:47.690Z,8.62
2018-12-31T01:06:18.339Z,8.62
2018-12-31T01:08:50.519Z,8.63
2018-12-31T01:11:20.834Z,8.63
2018-12-31T01:13:51.527Z,8.64
2018-12-31T01:16:26.262Z,8.65
2018-12-31T01:18:56.903Z,8.64
2018-12-31T01:21:27.488Z,8.65
2018-12-31T01:24:05.380Z,8.67
2018-12-31T01:26:35.725Z,8.68
2018-12-31T01:29:10.312Z,8.68
2018-12-31T01:31:40.779Z,8.66
2018-12-31T01:34:11.757Z,8.68
2018-12-31T01:36:54.751Z,8.68
2018-12-31T01:39:24.190Z,8.68
2018-12-31T01:41:54.576Z,8.68
2018-12-31T01:44:25.763Z,8.65
2018-12-31T01:46:56.199Z,8.65
2018-12-31T01:49:27.986Z,8.70
2018-12-31T01:52:02.733Z,8.66
2018-12-31T01:54:33.354Z,8.66
2018-12-31T01:57:03.719Z,8.67
2018-12-31T01:59:36.598Z,8.68
2018-12-31T02:02:08.510Z,8.70
2018-12-31T02:04:39.997Z,8.70
2018-12-31T02:07:12.100Z,8.72
2018-12-31T02:09:42.730Z,8.72
2018-12-31T02:12:16.367Z,8.72
2018-12-31T02:14:48.545Z,8.73
2018-12-31T02:17:18.956Z,8.74
2018-12-31T02:19:52.789Z,8.74
2018-12-31T02:22:23.116Z,8.75
2018-12-31T02:24:54.381Z,8.77
2018-12-31T02:27:26.648Z,8.78
2018-12-31T02:29:58.421Z,8.80
2018-12-31T02:32:33.337Z,8.79
2018-12-31T02:35:04.249Z,8.81
2018-12-31T02:37:34.624Z,8.80
2018-12-31T02:40:06.679Z,8.79
2018-12-31T02:42:39.157Z,8.79
2018-12-31T02:45:09.816Z,8.80
2018-12-31T02:47:40.137Z,8.79
2018-12-31T02:50:12.515Z,8.80
2018-12-31T02:52:43.063Z,8.80
2018-12-31T02:55:15.621Z,8.79
2018-12-31T02:57:45.948Z,8.79
2018-12-31T03:00:16.367Z,8.80
2018-12-31T03:02:49.930Z,8.79
2018-12-31T03:05:21.663Z,8.80
2018-12-31T03:07:54.917Z,8.81
2018-12-31T03:10:27.207Z,8.81
2018-12-31T03:12:57.533Z,8.81
2018-12-31T03:15:28.222Z,8.82
2018-12-31T03:18:00.507Z,8.82
2018-12-31T03:20:34.180Z,8.83
2018-12-31T03:23:04.514Z,8.84
2018-12-31T03:25:41.538Z,8.84
2018-12-31T03:28:11.881Z,8.85
2018-12-31T03:30:43.792Z,8.86
2018-12-31T03:33:21.346Z,8.86
2018-12-31T03:35:52.577Z,8.87
2018-12-31T03:38:24.251Z,8.87
2018-12-31T03:40:57.186Z,8.88
2018-12-31T03:43:27.444Z,8.88
2018-12-31T03:45:59.171Z,8.89
2018-12-31T03:48:33.618Z,8.90
2018-12-31T03:51:05.533Z,8.91
2018-12-31T03:53:35.974Z,8.92
2018-12-31T03:56:15.647Z,8.92
2018-12-31T03:58:44.735Z,8.93
2018-12-31T04:01:16.549Z,8.92
2018-12-31T04:04:01.833Z,8.94
2018-12-31T04:06:32.457Z,8.94
2018-12-31T04:09:09.863Z,8.95
2018-12-31T04:11:43.111Z,8.95
2018-12-31T04:14:13.840Z,8.94
2018-12-31T04:16:44.219Z,8.95
2018-12-31T04:19:19.606Z,8.96
2018-12-31T04:21:50.025Z,8.97
2018-12-31T04:24:22.271Z,8.93
2018-12-31T04:27:03.504Z,8.97
2018-12-31T04:29:34.850Z,8.97
2018-12-31T04:32:07.017Z,8.96
2018-12-31T04:34:37.683Z,8.96
2018-12-31T04:37:08.053Z,8.97
2018-12-31T04:39:55.082Z,8.97
2018-12-31T04:42:17.895Z,8.97
2018-12-31T04:44:49.584Z,8.97
2018-12-31T04:47:25.013Z,8.98
2018-12-31T04:49:56.240Z,8.98
2018-12-31T04:52:26.719Z,8.98
2018-12-31T04:54:58.453Z,8.99
2018-12-31T04:57:28.899Z,8.99
2018-12-31T05:00:00.974Z,8.98
2018-12-31T05:02:33.118Z,9.00
2018-12-31T05:05:06.021Z,9.01
2018-12-31T05:07:39.466Z,9.01
2018-12-31T05:10:11.655Z,9.02
2018-12-31T05:13:00.744Z,9.02
2018-12-31T05:15:31.477Z,9.02
2018-12-31T05:18:02.367Z,9.03
2018-12-31T05:20:34.616Z,9.06
2018-12-31T05:23:05.452Z,9.06
2018-12-31T05:25:36.353Z,9.06
2018-12-31T05:28:06.905Z,9.06
2018-12-31T05:30:37.652Z,9.07
2018-12-31T05:33:09.664Z,9.07
2018-12-31T05:35:41.353Z,9.09
2018-12-31T05:38:11.783Z,9.09
2018-12-31T05:40:46.767Z,9.09
2018-12-31T05:43:17.157Z,9.10
2018-12-31T05:45:47.847Z,9.10
2018-12-31T05:48:18.342Z,9.11
2018-12-31T05:50:50.716Z,9.11
2018-12-31T05:53:21.127Z,9.11
2018-12-31T05:55:51.580Z,9.12
2018-12-31T05:58:22.190Z,9.12
2018-12-31T06:00:53.022Z,9.11
2018-12-31T06:03:38.691Z,9.11
2018-12-31T06:05:57.936Z,9.11
2018-12-31T06:08:28.288Z,9.12
2018-12-31T06:11:02.428Z,9.12
2018-12-31T06:13:33.195Z,9.12
2018-12-31T06:16:04.687Z,9.11
2018-12-31T06:18:36.635Z,9.11
2018-12-31T06:21:06.940Z,9.11
2018-12-31T06:23:37.700Z,9.10
2018-12-31T06:26:13.594Z,9.10
2018-12-31T06:28:43.939Z,9.11
2018-12-31T06:31:14.358Z,9.11
2018-12-31T06:33:46.108Z,9.09
2018-12-31T06:36:16.504Z,9.07
2018-12-31T06:38:56.785Z,9.04
2018-12-31T06:41:25.233Z,9.00
2018-12-31T06:43:56.188Z,9.00
2018-12-31T06:46:26.549Z,8.99
2018-12-31T06:48:58.843Z,9.00
2018-12-31T06:51:29.200Z,8.97
2018-12-31T06:53:59.907Z,8.95
2018-12-31T06:56:38.588Z,8.93
2018-12-31T06:59:10.638Z,8.95
2018-12-31T07:01:41.386Z,8.98
2018-12-31T07:04:24.434Z,9.00
2018-12-31T07:06:52.071Z,8.99
2018-12-31T07:09:29.229Z,9.01
2018-12-31T07:11:58.218Z,9.03
2018-12-31T07:14:28.730Z,9.04
2018-12-31T07:17:04.523Z,9.06
2018-12-31T07:19:36.776Z,9.07
2018-12-31T07:22:08.796Z,9.08
2018-12-31T07:24:55.844Z,9.09
2018-12-31T07:27:15.177Z,9.09
2018-12-31T07:29:45.502Z,9.09
2018-12-31T07:32:20.637Z,9.10
2018-12-31T07:34:54.347Z,9.08
2018-12-31T07:37:25.065Z,9.08
2018-12-31T07:42:35.044Z,9.08
2018-12-31T07:45:05.600Z,9.07
2018-12-31T07:47:37.359Z,9.07
2018-12-31T07:50:08.016Z,9.08
2018-12-31T07:52:41.667Z,9.08
2018-12-31T07:55:13.707Z,9.09
2018-12-31T07:57:44.437Z,9.09
2018-12-31T08:00:14.799Z,9.07
2018-12-31T08:02:47.351Z,9.08
2018-12-31T08:05:18.902Z,9.07
2018-12-31T08:07:56.125Z,9.08
2018-12-31T08:10:26.722Z,9.07
2018-12-31T08:12:57.393Z,9.08
2018-12-31T08:15:30.730Z,9.09
2018-12-31T08:18:01.358Z,9.09
2018-12-31T08:20:31.663Z,9.09
2018-12-31T08:23:04.643Z,9.09
2018-12-31T08:25:34.929Z,9.09
2018-12-31T08:28:06.642Z,9.09
2018-12-31T08:30:37.001Z,9.10
2018-12-31T08:33:09.235Z,9.09
2018-12-31T08:35:48.347Z,9.09
2018-12-31T08:38:19.018Z,9.10
2018-12-31T08:40:49.392Z,9.10
2018-12-31T08:43:21.717Z,9.13
2018-12-31T08:45:53.408Z,9.14
2018-12-31T08:48:24.445Z,9.17
2018-12-31T08:50:55.021Z,9.16
2018-12-31T08:53:36.937Z,9.17
2018-12-31T08:56:02.010Z,9.20
2018-12-31T08:58:33.760Z,9.22
2018-12-31T09:01:11.162Z,9.24
2018-12-31T09:03:43.602Z,9.25
2018-12-31T09:06:17.033Z,9.27
2018-12-31T09:08:47.670Z,9.27
2018-12-31T09:11:25.612Z,9.28
2018-12-31T09:13:56.480Z,9.32
2018-12-31T09:16:26.798Z,9.35
2018-12-31T09:18:58.846Z,9.42
2018-12-31T09:21:30.501Z,9.44
2018-12-31T09:24:02.643Z,9.46
2018-12-31T09:26:33.217Z,9.46
2018-12-31T09:29:07.548Z,9.50
2018-12-31T09:31:37.983Z,9.51
2018-12-31T09:34:33.233Z,9.53
2018-12-31T09:36:42.289Z,9.56
2018-12-31T09:39:13.046Z,9.54
2018-12-31T09:41:45.250Z,9.54
2018-12-31T09:44:15.953Z,9.55
2018-12-31T09:46:54.118Z,9.53
2018-12-31T09:49:23.692Z,9.51
2018-12-31T09:51:57.167Z,9.51
2018-12-31T09:54:29.074Z,9.50
2018-12-31T09:56:59.728Z,9.50
2018-12-31T09:59:30.435Z,9.53
2018-12-31T10:02:00.874Z,9.46
2018-12-31T10:04:38.076Z,9.45
2018-12-31T10:07:11.450Z,9.46
2018-12-31T10:09:50.651Z,9.45
2018-12-31T10:12:20.894Z,9.48
2018-12-31T10:15:01.419Z,9.54
2018-12-31T10:17:31.863Z,9.61
2018-12-31T10:20:03.797Z,9.67
2018-12-31T10:22:34.490Z,9.75
2018-12-31T10:25:12.511Z,9.79
2018-12-31T10:27:44.496Z,9.77
2018-12-31T10:30:17.826Z,9.78
2018-12-31T10:32:49.202Z,9.74
2018-12-31T10:35:23.761Z,9.73
2018-12-31T10:37:54.828Z,9.75
2018-12-31T10:40:25.178Z,9.75
2018-12-31T10:42:58.400Z,9.78
2018-12-31T10:45:29.009Z,9.76
2018-12-31T10:47:59.952Z,9.81
2018-12-31T10:50:32.626Z,9.87
2018-12-31T10:53:03.778Z,9.94
2018-12-31T10:55:34.762Z,9.94
2018-12-31T10:58:05.150Z,9.96
2018-12-31T11:00:35.805Z,9.97
2018-12-31T11:03:11.912Z,9.90
2018-12-31T11:05:42.549Z,9.86
2018-12-31T11:08:13.047Z,9.85
2018-12-31T11:10:43.705Z,9.83
2018-12-31T11:13:14.125Z,9.85
2018-12-31T11:15:46.039Z,9.90
2018-12-31T11:18:16.465Z,9.94
2018-12-31T11:20:46.956Z,9.95
2018-12-31T11:23:18.589Z,9.94
2018-12-31T11:25:49.037Z,9.90
2018-12-31T11:28:23.657Z,9.91
2018-12-31T11:30:54.253Z,9.93
2018-12-31T11:33:24.685Z,9.98
2018-12-31T11:35:57.005Z,10.00
2018-12-31T11:38:27.509Z,10.05
2018-12-31T11:41:13.494Z,10.16
2018-12-31T11:43:36.667Z,10.25
2018-12-31T11:46:08.458Z,10.27
2018-12-31T11:48:38.763Z,10.26
2018-12-31T11:51:09.481Z,10.27
2018-12-31T11:53:41.689Z,10.28
2018-12-31T11:56:14.011Z,10.27
2018-12-31T11:58:44.358Z,10.27
2018-12-31T12:01:20.454Z,10.35
2018-12-31T12:03:51.275Z,10.36
2018-12-31T12:06:22.008Z,10.34
2018-12-31T12:09:00.479Z,10.27
2018-12-31T12:11:31.293Z,10.23
2018-12-31T12:14:04.961Z,10.20
2018-12-31T12:16:37.393Z,10.21
2018-12-31T12:19:09.735Z,10.19
2018-12-31T12:21:42.897Z,10.19
2018-12-31T12:24:14.573Z,10.18
2018-12-31T12:26:45.354Z,10.13
2018-12-31T12:29:17.212Z,10.09
2018-12-31T12:31:47.836Z,10.09
2018-12-31T12:34:18.156Z,10.09
2018-12-31T12:36:49.114Z,10.12
2018-12-31T12:39:19.541Z,10.13
2018-12-31T12:41:55.008Z,10.13
2018-12-31T12:44:25.635Z,10.17
2018-12-31T12:46:58.348Z,10.16
2018-12-31T12:49:28.363Z,10.20
2018-12-31T12:51:58.687Z,10.26
2018-12-31T12:54:36.559Z,10.29
2018-12-31T12:57:07.357Z,10.24
2018-12-31T12:59:39.055Z,10.22
2018-12-31T13:02:11.561Z,10.21
2018-12-31T13:04:42.882Z,10.25
2018-12-31T13:07:16.544Z,10.20
2018-12-31T13:09:50.394Z,10.20
2018-12-31T13:12:32.373Z,10.28
2018-12-31T13:15:03.276Z,10.25
2018-12-31T13:17:50.187Z,10.26
2018-12-31T13:20:10.351Z,10.19
2018-12-31T13:22:40.999Z,10.21
2018-12-31T13:25:13.048Z,10.22
2018-12-31T13:27:43.409Z,10.23
2018-12-31T13:30:16.453Z,10.23
2018-12-31T13:32:48.277Z,10.29
2018-12-31T13:35:18.564Z,10.31
2018-12-31T13:37:55.553Z,10.35
2018-12-31T13:40:26.653Z,10.36
2018-12-31T13:42:57.438Z,10.35
2018-12-31T13:45:31.166Z,10.31
2018-12-31T13:48:03.423Z,10.30
2018-12-31T13:50:34.327Z,10.26
2018-12-31T13:53:05.239Z,10.29
2018-12-31T13:55:35.627Z,10.32
2018-12-31T13:58:06.020Z,10.34
2018-12-31T14:00:38.244Z,10.39
2018-12-31T14:03:16.924Z,10.39
2018-12-31T14:05:41.018Z,10.40
2018-12-31T14:08:11.665Z,10.43
2018-12-31T14:10:43.799Z,10.44
2018-12-31T14:13:17.476Z,10.44
2018-12-31T14:15:56.083Z,10.41
2018-12-31T14:18:26.591Z,10.35
2018-12-31T14:20:57.389Z,10.36
2018-12-31T14:23:30.870Z,10.33
2018-12-31T14:26:01.325Z,10.27
2018-12-31T14:28:35.522Z,10.26
2018-12-31T14:31:06.425Z,10.23
2018-12-31T14:33:36.797Z,10.19
2018-12-31T14:36:07.141Z,10.14
2018-12-31T14:38:37.965Z,10.11
2018-12-31T14:41:11.259Z,10.08
2018-12-31T14:43:43.500Z,10.04
2018-12-31T14:46:13.805Z,10.01
2018-12-31T14:48:44.498Z,9.96
2018-12-31T14:51:15.459Z,9.96
2018-12-31T14:53:54.528Z,9.95
2018-12-31T14:56:24.968Z,9.93
2018-12-31T14:59:07.377Z,9.91
2018-12-31T15:01:36.847Z,9.89
2018-12-31T15:04:07.389Z,9.88
2018-12-31T15:06:44.614Z,9.87
2018-12-31T15:09:15.204Z,9.86
2018-12-31T15:11:50.238Z,9.85
2018-12-31T15:14:22.488Z,9.83
2018-12-31T15:16:52.884Z,9.82
2018-12-31T15:19:23.343Z,9.80
2018-12-31T15:21:53.980Z,9.79
2018-12-31T15:24:27.466Z,9.74
2018-12-31T15:26:59.212Z,9.74
2018-12-31T15:29:31.658Z,9.75
2018-12-31T15:32:02.941Z,9.74
2018-12-31T15:34:35.337Z,9.72
2018-12-31T15:37:05.908Z,9.72
2018-12-31T15:39:37.655Z,9.72
2018-12-31T15:42:10.526Z,9.68
2018-12-31T15:44:41.055Z,9.67
2018-12-31T15:47:14.282Z,9.66
2018-12-31T15:49:50.224Z,9.65
2018-12-31T15:52:24.239Z,9.64
2018-12-31T15:54:56.242Z,9.61
2018-12-31T15:57:26.766Z,9.61
2018-12-31T16:00:09.958Z,9.62
2018-12-31T16:02:40.577Z,9.61
2018-12-31T16:05:14.073Z,9.61
2018-12-31T16:07:46.203Z,9.59
2018-12-31T16:10:18.022Z,9.58
2018-12-31T16:12:49.467Z,9.57
2018-12-31T16:15:29.310Z,9.56
2018-12-31T16:17:58.010Z,9.55
2018-12-31T16:20:28.407Z,9.54
2018-12-31T16:23:01.155Z,9.53
2018-12-31T16:25:35.770Z,9.53
2018-12-31T16:28:07.383Z,9.51
2018-12-31T16:30:37.854Z,9.51
2018-12-31T16:33:12.196Z,9.51
2018-12-31T16:35:42.559Z,9.50
2018-12-31T16:38:14.523Z,9.50
2018-12-31T16:40:46.149Z,9.49
2018-12-31T16:43:17.959Z,9.42
2018-12-31T16:45:49.998Z,9.42
2018-12-31T16:48:23.318Z,9.46
2018-12-31T16:50:53.647Z,9.46
2018-12-31T16:53:26.518Z,9.45
2018-12-31T16:55:56.946Z,9.45
2018-12-31T16:58:34.534Z,9.46
2018-12-31T17:01:04.668Z,9.46
2018-12-31T17:03:36.627Z,9.43
2018-12-31T17:06:17.113Z,9.45
2018-12-31T17:08:44.710Z,9.44
2018-12-31T17:11:15.047Z,9.45
2018-12-31T17:13:50.304Z,9.40
2018-12-31T17:16:21.203Z,9.40
2018-12-31T17:19:00.331Z,9.44
2018-12-31T17:21:29.529Z,9.43
2018-12-31T17:24:02.602Z,9.45
2018-12-31T17:26:34.898Z,9.44
2018-12-31T17:29:05.631Z,9.41
2018-12-31T17:31:36.171Z,9.35
2018-12-31T17:34:11.776Z,9.31
2018-12-31T17:36:45.954Z,9.28
2018-12-31T17:39:20.403Z,9.24
2018-12-31T17:41:50.836Z,9.19
2018-12-31T17:44:29.588Z,9.15
2018-12-31T17:47:02.126Z,9.11
2018-12-31T17:49:33.043Z,9.10
2018-12-31T17:52:03.442Z,9.10
2018-12-31T17:54:34.356Z,9.07
2018-12-31T17:57:06.859Z,9.05
2018-12-31T17:59:37.152Z,9.03
2018-12-31T18:02:10.519Z,8.99
2018-12-31T18:04:41.300Z,8.98
2018-12-31T18:07:17.231Z,8.97
2018-12-31T18:09:49.172Z,8.95
2018-12-31T18:12:20.590Z,8.94
2018-12-31T18:14:52.573Z,8.94
2018-12-31T18:17:22.971Z,8.95
2018-12-31T18:19:56.867Z,8.97
2018-12-31T18:22:27.585Z,8.99
2018-12-31T18:24:58.111Z,9.01
2018-12-31T18:27:28.610Z,9.04
2018-12-31T18:29:58.964Z,9.06
2018-12-31T18:32:29.463Z,9.08
2018-12-31T18:34:59.929Z,9.07
2018-12-31T18:37:30.830Z,9.10
2018-12-31T18:40:01.736Z,9.09
2018-12-31T18:42:33.745Z,9.08
2018-12-31T18:45:09.858Z,9.08
2018-12-31T18:47:40.532Z,9.08
2018-12-31T18:50:11.013Z,9.06
2018-12-31T18:52:41.688Z,9.05
2018-12-31T18:55:23.233Z,9.01
2018-12-31T18:57:54.083Z,9.01
2018-12-31T19:00:24.763Z,9.02
2018-12-31T19:02:55.379Z,9.03
2018-12-31T19:05:29.988Z,9.06
2018-12-31T19:08:02.325Z,9.08
2018-12-31T19:10:33.180Z,9.07
2018-12-31T19:13:03.982Z,9.06
2018-12-31T19:15:34.644Z,9.05
2018-12-31T19:18:06.924Z,9.03
2018-12-31T19:20:40.088Z,9.03
2018-12-31T19:23:10.447Z,9.05
2018-12-31T19:25:51.169Z,9.05
2018-12-31T19:28:25.457Z,9.03
2018-12-31T19:30:56.168Z,9.02
2018-12-31T19:33:26.546Z,9.02
2018-12-31T19:36:01.926Z,9.01
2018-12-31T19:38:32.352Z,9.00
2018-12-31T19:41:13.819Z,8.98
2018-12-31T19:43:44.144Z,8.98
2018-12-31T19:46:14.948Z,8.99
2018-12-31T19:48:53.377Z,8.98
2018-12-31T19:51:26.715Z,9.00
2018-12-31T19:53:57.288Z,9.00
2018-12-31T19:56:27.982Z,9.00
2018-12-31T19:59:00.998Z,9.01
2018-12-31T20:01:31.089Z,9.04
2018-12-31T20:04:01.413Z,9.05
2018-12-31T20:06:32.105Z,9.05
2018-12-31T20:09:02.568Z,9.05
2018-12-31T20:11:34.596Z,9.04
2018-12-31T20:14:18.649Z,9.05
2018-12-31T20:16:49.314Z,9.03
2018-12-31T20:19:20.308Z,9.02
2018-12-31T20:21:51.020Z,9.01
2018-12-31T20:24:30.819Z,8.98
2018-12-31T20:27:05.217Z,8.95
2018-12-31T20:29:52.018Z,8.93
2018-12-31T20:32:34.480Z,8.93
2018-12-31T20:35:07.782Z,8.95
2018-12-31T20:37:40.133Z,8.89
2018-12-31T20:40:10.642Z,8.93
2018-12-31T20:42:50.236Z,8.95
2018-12-31T20:45:30.128Z,8.95
2018-12-31T20:48:01.958Z,8.94
2018-12-31T20:50:33.031Z,8.95
2018-12-31T20:53:03.833Z,8.95
2018-12-31T20:55:34.250Z,8.95
2018-12-31T20:58:11.050Z,8.93
2018-12-31T21:00:54.579Z,8.93
2018-12-31T21:03:25.213Z,8.93
2018-12-31T21:05:56.327Z,8.93
2018-12-31T21:08:27.060Z,8.95
2018-12-31T21:11:01.942Z,8.98
2018-12-31T21:13:34.197Z,8.97
2018-12-31T21:16:05.545Z,8.91
2018-12-31T21:18:37.315Z,8.87
2018-12-31T21:21:09.731Z,8.82
2018-12-31T21:23:41.269Z,8.76
2018-12-31T21:26:11.963Z,8.71
2018-12-31T21:28:42.760Z,8.66
2018-12-31T21:31:13.111Z,8.62
2018-12-31T21:33:48.954Z,8.58
2018-12-31T21:36:19.271Z,8.57
2018-12-31T21:38:50.039Z,8.56
2018-12-31T21:41:20.403Z,8.56
2018-12-31T21:43:51.072Z,8.55
2018-12-31T21:46:22.733Z,8.55
2018-12-31T21:48:55.639Z,8.57
2018-12-31T21:51:26.090Z,8.57
2018-12-31T21:53:57.845Z,8.56
2018-12-31T21:56:45.630Z,8.56
2018-12-31T21:59:16.233Z,8.55
2018-12-31T22:01:46.590Z,8.53
2018-12-31T22:04:17.951Z,8.52
2018-12-31T22:07:03.573Z,8.50
2018-12-31T22:09:21.767Z,8.51
2018-12-31T22:11:52.433Z,8.50
2018-12-31T22:14:23.165Z,8.50
2018-12-31T22:16:53.580Z,8.51
2018-12-31T22:19:26.726Z,8.53
2018-12-31T22:22:01.719Z,8.53
2018-12-31T22:24:33.359Z,8.53
2018-12-31T22:27:03.987Z,8.53
2018-12-31T22:29:34.366Z,8.51
2018-12-31T22:32:04.779Z,8.51
2018-12-31T22:34:37.523Z,8.49
2018-12-31T22:37:14.109Z,8.49
2018-12-31T22:39:46.056Z,8.45
2018-12-31T22:42:16.430Z,8.42
2018-12-31T22:44:47.045Z,8.37
2018-12-31T22:47:27.229Z,8.36
2018-12-31T22:50:03.025Z,8.31
2018-12-31T22:52:33.962Z,8.31
2018-12-31T22:55:04.550Z,8.33
2018-12-31T22:57:47.373Z,8.33
2018-12-31T23:00:29.139Z,8.32
2018-12-31T23:03:01.104Z,8.32
2018-12-31T23:05:42.695Z,8.33
2018-12-31T23:08:16.451Z,8.32
2018-12-31T23:10:49.848Z,8.32
2018-12-31T23:13:25.898Z,8.32
2018-12-31T23:15:57.766Z,8.33
2018-12-31T23:18:35.835Z,8.33
2018-12-31T23:21:10.136Z,8.32
2018-12-31T23:23:42.676Z,8.32
2018-12-31T23:26:14.920Z,8.31
2018-12-31T23:28:52.466Z,8.32
2018-12-31T23:31:17.541Z,8.31
2018-12-31T23:33:47.804Z,8.33
2018-12-31T23:36:19.760Z,8.32
2018-12-31T23:38:50.304Z,8.32
2018-12-31T23:41:20.800Z,8.33
2018-12-31T23:44:10.897Z,8.32
2018-12-31T23:46:36.180Z,8.33
2018-12-31T23:49:06.693Z,8.32
2018-12-31T23:51:38.683Z,8.22
2018-12-31T23:54:09.218Z,8.22
2018-12-31T23:56:39.830Z,8.23
2018-12-31T23:59:10.836Z,8.17
